Time;durP1;ratioP1;P1;durP2;ratioP2;P2;SDS_P1;SDS_P2;PMS_P1;PMS_P2;Temp;Humidity;BMP_temperature;BMP_pressure;BME280_temperature;BME280_humidity;BME280_pressure;Samples;Min_cycle;Max_cycle;Signal;HPM_P1;HPM_P2
2022/02/02 00:01:36;;;;;;;5.28;2.92;;;;;;;;;;4393027;32;20112;-63
2022/02/02 00:04:05;;;;;;;4.32;3.10;;;;;;;;;;4404938;32;20089;-64
2022/02/02 00:06:40;;;;;;;5.68;3.40;;;;;;;;;;4405199;32;20079;-63
2022/02/02 00:09:12;;;;;;;5.40;3.40;;;;;;;;;;4396444;32;20160;-63
2022/02/02 00:12:16;;;;;;;5.85;3.12;;;;;;;;;;4407682;32;20081;-69
2022/02/02 00:17:08;;;;;;;4.22;3.00;;;;;;;;;;4408086;32;20093;-63
2022/02/02 00:19:41;;;;;;;4.70;2.90;;;;;;;;;;4407024;32;20608;-64
2022/02/02 00:22:15;;;;;;;5.07;3.10;;;;;;;;;;4395564;32;20152;-64
2022/02/02 00:27:19;;;;;;;4.82;3.50;;;;;;;;;;4407266;32;20443;-65
2022/02/02 00:29:51;;;;;;;5.85;3.10;;;;;;;;;;4407378;32;20077;-63
2022/02/02 00:32:41;;;;;;;5.65;3.35;;;;;;;;;;4407372;32;20144;-64
2022/02/02 00:35:09;;;;;;;4.45;2.95;;;;;;;;;;4407913;32;20085;-63
2022/02/02 00:37:36;;;;;;;5.62;3.83;;;;;;;;;;4382706;32;20168;-63
2022/02/02 00:40:05;;;;;;;5.65;3.55;;;;;;;;;;4394332;32;20512;-63
2022/02/02 00:42:32;;;;;;;5.50;3.25;;;;;;;;;;4394752;32;20070;-64
2022/02/02 00:44:59;;;;;;;5.45;3.05;;;;;;;;;;4394379;32;20081;-64
2022/02/02 00:47:26;;;;;;;5.70;3.20;;;;;;;;;;4394743;32;20073;-64
2022/02/02 00:49:54;;;;;;;6.30;3.53;;;;;;;;;;4382113;32;20264;-64
2022/02/02 00:52:22;;;;;;;6.22;3.25;;;;;;;;;;4394743;32;20142;-63
2022/02/02 00:54:49;;;;;;;5.53;2.85;;;;;;;;;;4394571;32;20149;-64
2022/02/02 00:57:16;;;;;;;5.65;3.45;;;;;;;;;;4394393;32;20070;-63
2022/02/02 00:59:43;;;;;;;4.95;3.20;;;;;;;;;;4395994;32;20193;-63
2022/02/02 01:02:12;;;;;;;5.30;3.30;;;;;;;;;;4394531;32;20073;-63
2022/02/02 01:04:39;;;;;;;6.35;3.05;;;;;;;;;;4406867;32;20147;-64
2022/02/02 01:07:15;;;;;;;5.10;3.33;;;;;;;;;;4394668;32;20108;-63
2022/02/02 01:28:36;;;;;;;4.87;2.92;;;;;;;;;;4404251;32;20516;-64
2022/02/02 01:31:03;;;;;;;5.47;3.35;;;;;;;;;;4394241;32;20074;-64
2022/02/02 01:33:30;;;;;;;4.62;2.90;;;;;;;;;;4380978;32;20096;-64
2022/02/02 01:35:58;;;;;;;6.95;3.50;;;;;;;;;;4393860;32;20504;-63
2022/02/02 01:38:28;;;;;;;6.50;3.50;;;;;;;;;;4381138;32;20069;-65
2022/02/02 01:41:01;;;;;;;4.95;3.10;;;;;;;;;;4394210;32;20541;-65
2022/02/02 01:43:33;;;;;;;4.60;3.25;;;;;;;;;;4407476;32;20541;-64
2022/02/02 01:46:07;;;;;;;5.12;3.30;;;;;;;;;;4382458;32;20082;-63
2022/02/02 01:48:41;;;;;;;5.35;3.12;;;;;;;;;;4394915;32;20073;-64
2022/02/02 01:54:13;;;;;;;6.40;3.42;;;;;;;;;;4395186;32;20511;-64
2022/02/02 01:56:40;;;;;;;4.80;2.95;;;;;;;;;;4384209;32;20160;-64
2022/02/02 02:02:07;;;;;;;6.20;3.12;;;;;;;;;;4390011;32;20150;-63
2022/02/02 02:04:34;;;;;;;5.62;3.53;;;;;;;;;;4381495;32;20452;-64
2022/02/02 02:07:02;;;;;;;6.57;3.70;;;;;;;;;;4394131;32;20080;-63
2022/02/02 02:09:29;;;;;;;5.75;3.20;;;;;;;;;;4381229;32;20095;-63
2022/02/02 02:12:01;;;;;;;5.78;3.58;;;;;;;;;;4381030;32;20072;-64
2022/02/02 02:16:57;;;;;;;6.55;3.62;;;;;;;;;;4393464;32;20159;-63
2022/02/02 02:19:24;;;;;;;7.00;3.78;;;;;;;;;;4393621;32;20093;-64
2022/02/02 02:21:52;;;;;;;5.78;3.50;;;;;;;;;;4393985;32;20097;-64
2022/02/02 02:24:19;;;;;;;6.45;3.53;;;;;;;;;;4393105;32;20066;-64
2022/02/02 02:26:46;;;;;;;7.45;3.50;;;;;;;;;;4406832;32;20072;-65
2022/02/02 02:37:01;;;;;;;5.05;3.30;;;;;;;;;;4393298;32;20085;-63
2022/02/02 02:56:01;;;;;;;7.25;3.83;;;;;;;;;;4405913;32;20081;-62
2022/02/02 04:01:51;;;;;;;7.53;4.27;;;;;;;;;;4408392;32;20074;-63
2022/02/02 04:07:07;;;;;;;6.18;4.15;;;;;;;;;;4409063;32;20447;-63
2022/02/02 04:09:36;;;;;;;6.80;3.60;;;;;;;;;;4395665;32;20077;-63
2022/02/02 04:15:44;;;;;;;6.10;3.70;;;;;;;;;;4397149;32;20093;-64
2022/02/02 04:56:47;;;;;;;6.32;3.42;;;;;;;;;;4396579;32;20166;-64
2022/02/02 05:05:17;;;;;;;6.78;4.07;;;;;;;;;;4406928;32;20065;-63
2022/02/02 05:07:21;;;;;;;6.15;3.50;;;;;;;;;;4401165;32;20165;-64
2022/02/02 05:10:04;;;;;;;5.53;3.33;;;;;;;;;;4395119;32;20496;-63
2022/02/02 05:16:04;;;;;;;7.20;3.47;;;;;;;;;;4379488;32;20092;-63
2022/02/02 05:41:17;;;;;;;6.68;4.00;;;;;;;;;;4418905;32;20073;-63
2022/02/02 05:53:26;;;;;;;8.15;4.20;;;;;;;;;;4406167;32;20077;-63
2022/02/02 05:55:53;;;;;;;8.27;4.40;;;;;;;;;;4393695;32;20082;-63
2022/02/02 05:58:28;;;;;;;6.37;3.75;;;;;;;;;;4406375;32;20074;-63
2022/02/02 06:00:57;;;;;;;8.40;5.10;;;;;;;;;;4393660;32;20506;-63
2022/02/02 06:03:31;;;;;;;8.40;4.70;;;;;;;;;;4393451;32;20073;-63
2022/02/02 06:05:58;;;;;;;7.90;4.57;;;;;;;;;;4394496;32;20466;-64
2022/02/02 06:08:25;;;;;;;9.35;4.55;;;;;;;;;;4381532;32;20080;-64
2022/02/02 06:10:52;;;;;;;9.27;5.00;;;;;;;;;;4380999;32;20081;-62
2022/02/02 06:13:20;;;;;;;10.00;5.05;;;;;;;;;;4393283;32;20169;-64
2022/02/02 06:15:49;;;;;;;9.10;5.40;;;;;;;;;;4393289;32;20077;-64
2022/02/02 06:18:19;;;;;;;9.63;4.78;;;;;;;;;;4405717;32;20073;-63
2022/02/02 06:20:52;;;;;;;8.73;4.47;;;;;;;;;;4405388;32;20069;-64
2022/02/02 06:23:29;;;;;;;7.93;5.40;;;;;;;;;;4380703;32;20524;-64
2022/02/02 06:25:56;;;;;;;;;;;;;;;;;;4393128;32;20073;-63
2022/02/02 06:28:24;;;;;;;9.90;5.10;;;;;;;;;;4380474;32;19968;-64
2022/02/02 06:31:01;;;;;;;6.60;4.50;;;;;;;;;;4380368;32;20177;-62
2022/02/02 06:33:39;;;;;;;8.27;5.30;;;;;;;;;;4381112;32;20084;-63
2022/02/02 06:36:08;;;;;;;9.02;5.03;;;;;;;;;;4405776;32;20069;-64
2022/02/02 06:38:39;;;;;;;5.72;3.80;;;;;;;;;;4393507;32;20169;-63
2022/02/02 06:41:06;;;;;;;10.52;5.45;;;;;;;;;;4380382;32;20069;-63
2022/02/02 06:43:33;;;;;;;8.63;5.07;;;;;;;;;;4380100;32;20062;-63
2022/02/02 06:46:03;;;;;;;9.88;5.00;;;;;;;;;;4380195;32;20092;-64
2022/02/02 06:48:32;;;;;;;8.27;5.15;;;;;;;;;;4405263;32;20074;-63
2022/02/02 06:51:29;;;;;;;6.80;4.37;;;;;;;;;;4392962;32;20077;-63
2022/02/02 06:53:55;;;;;;;7.30;4.90;;;;;;;;;;4404909;32;20077;-64
2022/02/02 06:59:06;;;;;;;7.55;4.55;;;;;;;;;;4393278;32;20065;-64
2022/02/02 07:04:19;;;;;;;6.55;4.32;;;;;;;;;;4405236;32;20065;-62
2022/02/02 07:07:04;;;;;;;6.95;4.10;;;;;;;;;;4405172;32;20085;-62
2022/02/02 07:09:53;;;;;;;8.60;4.87;;;;;;;;;;4393822;32;20089;-63
2022/02/02 07:12:37;;;;;;;6.47;4.75;;;;;;;;;;4394254;32;20092;-63
2022/02/02 07:15:21;;;;;;;6.25;4.37;;;;;;;;;;4393521;32;20145;-63
2022/02/02 07:18:11;;;;;;;8.73;4.40;;;;;;;;;;4394428;32;20122;-63
2022/02/02 07:28:30;;;;;;;7.65;4.57;;;;;;;;;;4393373;32;20081;-63
2022/02/02 07:31:06;;;;;;;8.55;4.43;;;;;;;;;;4393551;32;20076;-64
2022/02/02 07:33:39;;;;;;;6.05;4.55;;;;;;;;;;4393128;32;20085;-63
2022/02/02 07:36:13;;;;;;;7.78;4.62;;;;;;;;;;4392980;32;20070;-63
2022/02/02 07:38:50;;;;;;;6.80;4.65;;;;;;;;;;4393855;32;20082;-63
2022/02/02 07:41:33;;;;;;;6.68;4.60;;;;;;;;;;4392818;32;20093;-62
2022/02/02 07:44:10;;;;;;;7.82;5.03;;;;;;;;;;4393088;32;20658;-63
2022/02/02 07:46:37;;;;;;;7.60;4.00;;;;;;;;;;4380304;32;20083;-64
2022/02/02 07:49:08;;;;;;;6.70;4.75;;;;;;;;;;4404489;32;20124;-63
2022/02/02 07:51:37;;;;;;;9.18;4.82;;;;;;;;;;4392253;32;20161;-63
2022/02/02 07:54:08;;;;;;;8.23;5.03;;;;;;;;;;4379520;32;20073;-65
2022/02/02 07:56:43;;;;;;;9.60;5.18;;;;;;;;;;4392878;32;20173;-63
2022/02/02 07:59:34;;;;;;;9.45;4.97;;;;;;;;;;4392891;32;20096;-63
2022/02/02 08:02:03;;;;;;;7.43;4.37;;;;;;;;;;4404622;32;20092;-63
2022/02/02 08:04:31;;;;;;;8.43;4.53;;;;;;;;;;4391820;32;20531;-63
2022/02/02 08:06:58;;;;;;;6.95;4.47;;;;;;;;;;4391870;32;20515;-63
2022/02/02 08:09:33;;;;;;;7.53;4.15;;;;;;;;;;4379563;32;20093;-63
2022/02/02 08:12:02;;;;;;;8.73;5.22;;;;;;;;;;4404543;32;20170;-64
2022/02/02 08:14:29;;;;;;;6.82;4.93;;;;;;;;;;4404701;32;20474;-63
2022/02/02 08:16:56;;;;;;;7.40;4.37;;;;;;;;;;4404360;32;20154;-63
2022/02/02 08:19:23;;;;;;;9.07;4.72;;;;;;;;;;4391625;32;20074;-63
2022/02/02 08:21:49;;;;;;;7.40;4.65;;;;;;;;;;4392377;32;20080;-63
2022/02/02 08:24:18;;;;;;;7.20;4.30;;;;;;;;;;4405074;32;20077;-63
2022/02/02 08:26:45;;;;;;;8.00;4.78;;;;;;;;;;4372865;32;20093;-61
2022/02/02 08:29:12;;;;;;;7.82;4.43;;;;;;;;;;4372075;32;20093;-63
2022/02/02 08:31:39;;;;;;;6.50;4.50;;;;;;;;;;4391412;32;20164;-62
2022/02/02 08:34:10;;;;;;;7.20;3.92;;;;;;;;;;4391341;32;20065;-63
2022/02/02 08:36:40;;;;;;;5.97;3.92;;;;;;;;;;4380015;32;20073;-63
2022/02/02 08:39:30;;;;;;;7.70;4.80;;;;;;;;;;4392594;32;20077;-65
2022/02/02 08:42:02;;;;;;;6.28;4.22;;;;;;;;;;4392231;32;20074;-65
2022/02/02 08:44:41;;;;;;;6.68;4.22;;;;;;;;;;4391532;32;20194;-64
2022/02/02 08:47:10;;;;;;;6.10;4.50;;;;;;;;;;4380819;32;20131;-63
2022/02/02 08:49:45;;;;;;;6.82;4.45;;;;;;;;;;4394784;32;20097;-64
2022/02/02 08:52:13;;;;;;;6.32;5.05;;;;;;;;;;4391882;32;20082;-64
2022/02/02 08:54:47;;;;;;;7.43;4.10;;;;;;;;;;4392563;32;20069;-67
2022/02/02 08:57:41;;;;;;;6.15;4.00;;;;;;;;;;4379926;32;20591;-62
2022/02/02 09:00:14;;;;;;;5.55;3.97;;;;;;;;;;4385970;32;20531;-64
2022/02/02 09:02:54;;;;;;;6.72;4.18;;;;;;;;;;4389671;32;20075;-67
2022/02/02 09:05:24;;;;;;;5.68;3.50;;;;;;;;;;4400076;32;20065;-65
2022/02/02 09:07:52;;;;;;;6.35;4.12;;;;;;;;;;4380676;32;20058;-64
2022/02/02 09:19:58;;;;;;;5.82;3.92;;;;;;;;;;4395828;32;20536;-64
2022/02/02 09:24:35;;;;;;;6.35;3.95;;;;;;;;;;4363018;32;20101;-64
2022/02/02 09:32:48;;;;;;;9.70;4.53;;;;;;;;;;4406621;32;20220;-63
2022/02/02 09:35:15;;;;;;;6.12;4.30;;;;;;;;;;4383465;32;20089;-64
2022/02/02 09:37:41;;;;;;;6.00;4.30;;;;;;;;;;4406272;32;20073;-63
2022/02/02 09:40:54;;;;;;;7.03;4.20;;;;;;;;;;4405972;32;20170;-62
2022/02/02 09:42:57;;;;;;;5.70;3.90;;;;;;;;;;4395811;32;20153;-62
2022/02/02 09:45:26;;;;;;;5.93;4.50;;;;;;;;;;4393480;32;20165;-64
2022/02/02 09:48:09;;;;;;;5.20;3.53;;;;;;;;;;4393429;32;20564;-64
2022/02/02 09:50:45;;;;;;;5.95;3.95;;;;;;;;;;4405887;32;20069;-62
2022/02/02 09:53:19;;;;;;;7.05;4.32;;;;;;;;;;4394505;32;20065;-62
2022/02/02 10:06:59;;;;;;;6.75;4.22;;;;;;;;;;4398541;32;20070;-60
2022/02/02 10:09:48;;;;;;;7.43;4.10;;;;;;;;;;4407346;32;20073;-60
2022/02/02 10:12:43;;;;;;;6.55;4.55;;;;;;;;;;4387939;32;20201;-60
2022/02/02 10:15:21;;;;;;;5.85;4.20;;;;;;;;;;4400713;32;20080;-60
2022/02/02 10:18:02;;;;;;;6.32;4.47;;;;;;;;;;4399618;32;20089;-60
2022/02/02 10:20:29;;;;;;;7.07;4.35;;;;;;;;;;4398108;32;20076;-61
2022/02/02 10:22:58;;;;;;;8.10;4.57;;;;;;;;;;4403859;32;20157;-62
2022/02/02 10:25:26;;;;;;;5.80;4.20;;;;;;;;;;4385470;32;20101;-62
2022/02/02 10:28:05;;;;;;;6.35;4.40;;;;;;;;;;4402807;32;20084;-60
2022/02/02 10:30:32;;;;;;;6.53;4.20;;;;;;;;;;4400186;32;20105;-60
2022/02/02 10:32:59;;;;;;;6.28;3.83;;;;;;;;;;4390393;32;20471;-60
2022/02/02 10:35:31;;;;;;;6.25;4.40;;;;;;;;;;4385157;32;20078;-60
2022/02/02 10:37:59;;;;;;;5.90;3.80;;;;;;;;;;4399638;32;20210;-60
2022/02/02 10:43:23;;;;;;;5.05;4.07;;;;;;;;;;4389120;32;20193;-61
2022/02/02 10:45:50;;;;;;;6.12;3.85;;;;;;;;;;4383847;32;20070;-61
2022/02/02 10:48:34;;;;;;;4.70;3.37;;;;;;;;;;4386102;32;20106;-60
2022/02/02 10:51:08;;;;;;;6.22;3.72;;;;;;;;;;4384971;32;20161;-60
2022/02/02 10:53:59;;;;;;;4.85;3.62;;;;;;;;;;4373751;32;20158;-60
2022/02/02 10:56:38;;;;;;;6.15;3.50;;;;;;;;;;4405556;32;20116;-62
2022/02/02 11:07:04;;;;;;;4.78;3.78;;;;;;;;;;4405292;32;20077;-62
2022/02/02 11:09:30;;;;;;;6.30;3.10;;;;;;;;;;4406172;32;20101;-63
2022/02/02 11:11:58;;;;;;;5.03;3.30;;;;;;;;;;4388354;32;20516;-61
2022/02/02 11:14:34;;;;;;;4.68;3.30;;;;;;;;;;4389549;32;20479;-62
2022/02/02 11:17:10;;;;;;;4.50;3.12;;;;;;;;;;4391363;32;20112;-63
2022/02/02 11:19:38;;;;;;;7.75;3.70;;;;;;;;;;4389262;32;20082;-63
2022/02/02 11:22:22;;;;;;;5.40;3.67;;;;;;;;;;4388124;32;20076;-61
2022/02/02 11:24:50;;;;;;;5.62;3.58;;;;;;;;;;4402932;32;20077;-62
2022/02/02 11:27:44;;;;;;;5.03;3.67;;;;;;;;;;4377938;32;20104;-62
2022/02/02 11:30:23;;;;;;;5.68;3.58;;;;;;;;;;4377426;32;20089;-61
2022/02/02 11:32:57;;;;;;;5.45;3.60;;;;;;;;;;4402422;32;20067;-62
2022/02/02 11:35:34;;;;;;;5.87;3.87;;;;;;;;;;4389885;32;20078;-63
2022/02/02 11:38:05;;;;;;;3.60;2.70;;;;;;;;;;4390266;32;20096;-60
2022/02/02 11:40:39;;;;;;;5.25;4.00;;;;;;;;;;4390298;32;20089;-62
2022/02/02 11:43:14;;;;;;;3.25;2.75;;;;;;;;;;4389583;32;20085;-62
2022/02/02 11:45:51;;;;;;;5.03;3.53;;;;;;;;;;4389915;32;20181;-62
2022/02/02 11:49:00;;;;;;;4.78;3.10;;;;;;;;;;4390130;32;20076;-61
2022/02/02 11:51:44;;;;;;;4.03;3.17;;;;;;;;;;4391100;32;20440;-60
2022/02/02 11:54:12;;;;;;;4.97;3.47;;;;;;;;;;4389402;32;20460;-62
2022/02/02 11:56:57;;;;;;;3.50;2.72;;;;;;;;;;4389410;32;20507;-62
2022/02/02 12:00:11;;;;;;;4.10;3.10;;;;;;;;;;4402456;32;20090;-61
2022/02/02 12:05:33;;;;;;;3.85;2.55;;;;;;;;;;4380566;32;20073;-61
2022/02/02 12:45:46;;;;;;;4.57;3.05;;;;;;;;;;4391768;32;20096;-63
2022/02/02 12:47:33;;;;;;;4.15;3.17;;;;;;;;;;4381658;32;20090;-61
2022/02/02 12:50:14;;;;;;;4.45;2.75;;;;;;;;;;4392034;32;20068;-63
2022/02/02 12:58:28;;;;;;;4.07;2.87;;;;;;;;;;4393337;32;20080;-62
2022/02/02 13:01:09;;;;;;;4.07;2.95;;;;;;;;;;4391865;32;20184;-61
2022/02/02 13:03:41;;;;;;;4.80;3.15;;;;;;;;;;4391475;32;20066;-61
2022/02/02 13:06:19;;;;;;;3.80;3.20;;;;;;;;;;4378895;32;20150;-62
2022/02/02 13:08:51;;;;;;;4.20;3.20;;;;;;;;;;4391379;32;20081;-62
2022/02/02 13:11:31;;;;;;;4.70;3.20;;;;;;;;;;4379553;32;20077;-61
2022/02/02 13:14:12;;;;;;;4.20;3.15;;;;;;;;;;4379434;32;20072;-61
2022/02/02 13:16:38;;;;;;;4.18;3.53;;;;;;;;;;4391525;32;20515;-61
2022/02/02 13:19:19;;;;;;;4.97;3.42;;;;;;;;;;4392755;32;20071;-62
2022/02/02 13:21:53;;;;;;;5.78;3.75;;;;;;;;;;4391867;32;20106;-62
2022/02/02 13:24:26;;;;;;;4.82;3.33;;;;;;;;;;4379666;32;20081;-62
2022/02/02 13:27:08;;;;;;;4.70;3.40;;;;;;;;;;4392239;32;20066;-63
2022/02/02 13:29:48;;;;;;;4.60;3.17;;;;;;;;;;4379901;32;20162;-63
2022/02/02 13:35:11;;;;;;;4.85;3.53;;;;;;;;;;4391776;32;20160;-62
2022/02/02 13:37:54;;;;;;;3.15;2.65;;;;;;;;;;4393035;32;20081;-61
2022/02/02 13:43:36;;;;;;;4.43;3.25;;;;;;;;;;4392065;32;20077;-62
2022/02/02 13:46:27;;;;;;;4.22;3.15;;;;;;;;;;4380771;32;20097;-62
2022/02/02 13:57:12;;;;;;;3.58;2.70;;;;;;;;;;4392622;32;20074;-63
2022/02/02 13:59:58;;;;;;;4.60;3.05;;;;;;;;;;4380381;32;20065;-61
2022/02/02 14:07:52;;;;;;;3.50;2.62;;;;;;;;;;4391545;32;20154;-64
2022/02/02 14:11:39;;;;;;;3.00;2.50;;;;;;;;;;4392187;32;20058;-61
2022/02/02 14:32:34;;;;;;;3.45;2.78;;;;;;;;;;4380035;32;20078;-62
2022/02/02 14:35:01;;;;;;;2.87;2.33;;;;;;;;;;4402969;32;20527;-61
2022/02/02 14:37:36;;;;;;;2.87;2.35;;;;;;;;;;4391510;32;20492;-61
2022/02/02 14:40:14;;;;;;;3.60;2.70;;;;;;;;;;4404054;32;20069;-61
2022/02/02 14:42:43;;;;;;;2.75;2.10;;;;;;;;;;4403320;32;20194;-62
2022/02/02 14:45:13;;;;;;;3.42;2.50;;;;;;;;;;4378882;32;20096;-63
2022/02/02 14:47:44;;;;;;;3.10;2.50;;;;;;;;;;4392072;32;20077;-62
2022/02/02 14:50:28;;;;;;;2.45;2.20;;;;;;;;;;4390181;32;20461;-61
2022/02/02 14:53:10;;;;;;;2.30;2.08;;;;;;;;;;4379465;32;20070;-63
2022/02/02 14:56:07;;;;;;;2.33;1.85;;;;;;;;;;4380237;32;20160;-62
2022/02/02 15:10:03;;;;;;;2.17;1.92;;;;;;;;;;4391662;32;20165;-62
2022/02/02 15:29:31;;;;;;;1.27;1.17;;;;;;;;;;4373927;32;20085;-61
2022/02/02 15:31:58;;;;;;;1.50;1.30;;;;;;;;;;4369408;32;20082;-62
2022/02/02 15:34:33;;;;;;;1.50;1.37;;;;;;;;;;4390297;32;20080;-63
2022/02/02 15:39:56;;;;;;;1.60;1.50;;;;;;;;;;4382694;32;20075;-62
2022/02/02 15:42:39;;;;;;;1.90;1.55;;;;;;;;;;4394328;32;20065;-63
2022/02/02 15:54:43;;;;;;;1.55;1.37;;;;;;;;;;4383243;32;20497;-61
2022/02/02 15:58:58;;;;;;;1.77;1.50;;;;;;;;;;4392921;32;20482;-61
2022/02/02 16:04:34;;;;;;;1.42;1.30;;;;;;;;;;4383258;32;20078;-62
2022/02/02 16:07:04;;;;;;;1.27;1.17;;;;;;;;;;4392286;32;20089;-62
2022/02/02 16:09:49;;;;;;;1.37;1.27;;;;;;;;;;4380105;32;20116;-61
2022/02/02 16:14:52;;;;;;;1.20;1.08;;;;;;;;;;4394077;32;20104;-62
2022/02/02 16:36:38;;;;;;;1.58;1.35;;;;;;;;;;3856146;37;20085;-63
2022/02/02 16:39:21;;;;;;;1.50;1.40;;;;;;;;;;4407310;32;20436;-62
2022/02/02 16:44:33;;;;;;;1.20;1.10;;;;;;;;;;4421193;32;20077;-63
2022/02/02 16:47:00;;;;;;;1.20;1.10;;;;;;;;;;4420578;32;20089;-60
2022/02/02 16:49:27;;;;;;;1.27;1.17;;;;;;;;;;4420596;32;20145;-62
2022/02/02 16:51:54;;;;;;;1.27;1.17;;;;;;;;;;4418462;32;20158;-61
2022/02/02 16:54:29;;;;;;;1.10;1.00;;;;;;;;;;4419680;32;20076;-61
2022/02/02 17:35:32;;;;;;;0.93;0.93;;;;;;;;;;4417394;32;20519;-61
2022/02/02 17:40:55;;;;;;;0.60;0.60;;;;;;;;;;4418094;32;20142;-62
2022/02/02 17:44:06;;;;;;;0.55;0.50;;;;;;;;;;4417417;32;20081;-62
2022/02/02 18:20:53;;;;;;;0.62;0.62;;;;;;;;;;4408613;32;20074;-63
2022/02/02 18:23:42;;;;;;;0.70;0.70;;;;;;;;;;4394558;32;20534;-62
2022/02/02 18:28:50;;;;;;;0.98;0.90;;;;;;;;;;4406704;32;20099;-61
2022/02/02 18:34:15;;;;;;;1.85;1.27;;;;;;;;;;4407591;32;20093;-62
2022/02/02 18:51:01;;;;;;;1.15;1.05;;;;;;;;;;4373726;32;20100;-61
2022/02/02 18:59:13;;;;;;;1.20;1.10;;;;;;;;;;4405681;32;20092;-60
2022/02/02 19:01:55;;;;;;;0.77;0.77;;;;;;;;;;4406522;32;20069;-61
2022/02/02 19:14:38;;;;;;;1.17;1.08;;;;;;;;;;4406404;32;20085;-62
2022/02/02 19:38:43;;;;;;;1.05;0.90;;;;;;;;;;4406105;32;20096;-61
2022/02/02 19:52:16;;;;;;;1.30;1.08;;;;;;;;;;4395191;32;20093;-62
2022/02/02 20:05:02;;;;;;;0.93;0.93;;;;;;;;;;4405261;32;19972;-62
2022/02/02 20:10:59;;;;;;;0.95;0.95;;;;;;;;;;4407027;32;20149;-62
2022/02/02 20:12:51;;;;;;;1.25;0.80;;;;;;;;;;4400722;32;20162;-61
2022/02/02 20:15:18;;;;;;;0.80;0.80;;;;;;;;;;4405325;32;20088;-61
2022/02/02 20:17:46;;;;;;;1.08;1.00;;;;;;;;;;4404927;32;20503;-63
2022/02/02 20:20:19;;;;;;;1.23;1.12;;;;;;;;;;4405310;32;20070;-61
2022/02/02 20:22:46;;;;;;;1.05;0.93;;;;;;;;;;4405397;32;20177;-61
2022/02/02 20:25:13;;;;;;;0.98;0.88;;;;;;;;;;4405471;32;20077;-62
2022/02/02 20:27:41;;;;;;;1.15;1.15;;;;;;;;;;4406423;32;20099;-62
2022/02/02 20:30:10;;;;;;;1.17;1.08;;;;;;;;;;4393001;32;20176;-62
2022/02/02 20:32:37;;;;;;;1.45;1.20;;;;;;;;;;4405032;32;20092;-62
2022/02/02 20:35:04;;;;;;;1.23;1.12;;;;;;;;;;4380139;32;20096;-61
2022/02/02 20:37:31;;;;;;;1.12;1.02;;;;;;;;;;4407029;32;20497;-62
2022/02/02 20:40:01;;;;;;;1.33;1.20;;;;;;;;;;4404840;32;20062;-61
2022/02/02 20:42:47;;;;;;;1.50;1.40;;;;;;;;;;4406644;32;20070;-63
2022/02/02 21:04:18;;;;;;;1.23;1.15;;;;;;;;;;4406193;32;20100;-62
2022/02/02 21:14:38;;;;;;;2.12;1.20;;;;;;;;;;4406517;32;20075;-62
2022/02/02 21:17:07;;;;;;;1.83;1.40;;;;;;;;;;4406607;32;20069;-62
2022/02/02 21:19:45;;;;;;;1.35;1.25;;;;;;;;;;4392790;32;20088;-62
2022/02/02 21:22:12;;;;;;;1.45;1.35;;;;;;;;;;4394573;32;20611;-62
2022/02/02 21:25:33;;;;;;;1.42;1.17;;;;;;;;;;4407514;32;20084;-62
2022/02/02 21:27:37;;;;;;;1.23;1.12;;;;;;;;;;4399740;32;20165;-60
2022/02/02 21:30:04;;;;;;;1.62;1.48;;;;;;;;;;4395995;32;20427;-61
2022/02/02 21:32:31;;;;;;;1.67;1.50;;;;;;;;;;4407366;32;20504;-62
2022/02/02 21:35:04;;;;;;;1.87;1.60;;;;;;;;;;4394435;32;20116;-63
2022/02/02 21:37:33;;;;;;;1.40;1.30;;;;;;;;;;4412141;32;20069;-62
2022/02/02 21:40:23;;;;;;;1.60;1.50;;;;;;;;;;4419999;32;20070;-61
2022/02/02 21:42:50;;;;;;;1.70;1.60;;;;;;;;;;4416087;32;20073;-61
2022/02/02 21:45:19;;;;;;;1.50;1.40;;;;;;;;;;4419871;32;20077;-64
2022/02/02 21:47:46;;;;;;;1.67;1.40;;;;;;;;;;4411198;32;20149;-62
2022/02/02 21:50:16;;;;;;;1.80;1.55;;;;;;;;;;4394932;32;20169;-61
2022/02/02 21:52:44;;;;;;;1.80;1.70;;;;;;;;;;4396016;32;20126;-62
2022/02/02 21:55:11;;;;;;;1.67;1.50;;;;;;;;;;4407139;32;20093;-61
2022/02/02 21:57:38;;;;;;;1.70;1.60;;;;;;;;;;4394277;32;20591;-62
2022/02/02 22:00:07;;;;;;;1.50;1.40;;;;;;;;;;4407496;32;20081;-62
2022/02/02 22:02:35;;;;;;;1.37;1.27;;;;;;;;;;4407309;32;20072;-61
2022/02/02 22:05:05;;;;;;;1.85;1.65;;;;;;;;;;4407041;32;20092;-62
2022/02/02 22:07:32;;;;;;;1.90;1.70;;;;;;;;;;4382223;32;20105;-62
2022/02/02 22:10:00;;;;;;;1.60;1.50;;;;;;;;;;4406934;32;20082;-62
2022/02/02 22:12:27;;;;;;;1.92;1.70;;;;;;;;;;4408200;32;20519;-62
2022/02/02 22:14:54;;;;;;;1.92;1.70;;;;;;;;;;4406844;32;20145;-62
2022/02/02 22:17:23;;;;;;;1.60;1.50;;;;;;;;;;4408224;32;20516;-62
2022/02/02 22:19:54;;;;;;;1.50;1.40;;;;;;;;;;4408504;32;20069;-61
2022/02/02 22:22:21;;;;;;;1.33;1.23;;;;;;;;;;4394007;32;20515;-63
2022/02/02 22:24:48;;;;;;;1.87;1.50;;;;;;;;;;4406606;32;20496;-62
2022/02/02 22:27:14;;;;;;;1.73;1.62;;;;;;;;;;4406670;32;20084;-63
2022/02/02 22:29:41;;;;;;;1.48;1.37;;;;;;;;;;4393982;32;20092;-62
2022/02/02 22:32:08;;;;;;;1.35;1.30;;;;;;;;;;4407906;32;20062;-61
2022/02/02 22:34:35;;;;;;;1.60;1.50;;;;;;;;;;4406397;32;20078;-62
2022/02/02 22:37:02;;;;;;;1.27;1.23;;;;;;;;;;4393953;32;20146;-61
2022/02/02 22:39:28;;;;;;;1.45;1.35;;;;;;;;;;4406282;32;20152;-63
2022/02/02 22:41:57;;;;;;;1.87;1.55;;;;;;;;;;4393661;32;20526;-62
2022/02/02 22:44:29;;;;;;;1.10;1.02;;;;;;;;;;4381760;32;20455;-61
2022/02/02 22:47:02;;;;;;;1.37;1.27;;;;;;;;;;4408105;32;20085;-62
2022/02/02 22:49:29;;;;;;;1.12;1.05;;;;;;;;;;4408122;32;20160;-61
2022/02/02 22:51:56;;;;;;;1.23;1.20;;;;;;;;;;4393876;32;20064;-61
2022/02/02 22:54:22;;;;;;;1.10;1.00;;;;;;;;;;4393565;32;20193;-62
2022/02/02 22:56:49;;;;;;;1.12;1.10;;;;;;;;;;4406353;32;20555;-61
2022/02/02 22:59:16;;;;;;;0.93;0.80;;;;;;;;;;4408193;32;20184;-62
2022/02/02 23:01:44;;;;;;;1.30;1.20;;;;;;;;;;4393371;32;20562;-61
2022/02/02 23:04:11;;;;;;;0.80;0.80;;;;;;;;;;4406077;32;20160;-62
2022/02/02 23:06:38;;;;;;;1.05;1.05;;;;;;;;;;4406160;32;20074;-61
2022/02/02 23:09:06;;;;;;;1.12;1.02;;;;;;;;;;4393902;32;20078;-62
2022/02/02 23:11:33;;;;;;;0.93;0.93;;;;;;;;;;4406427;32;20087;-62
2022/02/02 23:14:00;;;;;;;1.40;1.30;;;;;;;;;;4393410;32;20090;-62
2022/02/02 23:16:33;;;;;;;1.02;0.98;;;;;;;;;;4393978;32;20081;-61
2022/02/02 23:19:00;;;;;;;1.05;1.00;;;;;;;;;;4393827;32;20595;-63
2022/02/02 23:21:27;;;;;;;0.90;0.90;;;;;;;;;;4393331;32;20077;-61
2022/02/02 23:24:01;;;;;;;1.00;0.90;;;;;;;;;;4381244;32;20086;-62
2022/02/02 23:26:29;;;;;;;1.20;1.10;;;;;;;;;;4405852;32;20455;-62
2022/02/02 23:28:58;;;;;;;0.93;0.93;;;;;;;;;;4393410;32;20092;-62
2022/02/02 23:31:26;;;;;;;1.20;1.10;;;;;;;;;;4392882;32;20432;-61
2022/02/02 23:33:53;;;;;;;1.25;1.15;;;;;;;;;;4394311;32;20117;-62
2022/02/02 23:36:21;;;;;;;1.17;1.10;;;;;;;;;;4405918;32;20081;-61
2022/02/02 23:38:48;;;;;;;0.90;0.90;;;;;;;;;;4406450;32;20487;-62
2022/02/02 23:43:54;;;;;;;0.80;0.80;;;;;;;;;;4405607;32;20069;-62
2022/02/02 23:46:26;;;;;;;0.60;0.60;;;;;;;;;;4405603;32;20073;-61
2022/02/02 23:49:04;;;;;;;0.77;0.77;;;;;;;;;;4405206;32;20069;-61
2022/02/02 23:51:36;;;;;;;0.88;0.85;;;;;;;;;;4381000;32;20153;-61
2022/02/02 23:54:05;;;;;;;0.60;0.60;;;;;;;;;;4393261;32;20065;-62
2022/02/02 23:59:25;;;;;;;0.98;0.90;;;;;;;;;;4406010;32;20069;-62
